createdAt,value
2022-12-16T00:01:54.951Z,36.90
2022-12-16T00:04:25.085Z,38.22
2022-12-16T00:06:54.888Z,36.20
2022-12-16T00:09:24.886Z,33.72
2022-12-16T00:11:54.775Z,34.40
2022-12-16T00:14:24.913Z,38.17
2022-12-16T00:16:54.948Z,34.78
2022-12-16T00:19:24.950Z,35.55
2022-12-16T00:21:54.890Z,37.63
2022-12-16T00:24:24.941Z,36.10
2022-12-16T00:26:54.711Z,32.03
2022-12-16T00:29:24.977Z,31.35
2022-12-16T00:31:54.761Z,33.75
2022-12-16T00:34:24.383Z,33.70
2022-12-16T00:36:54.219Z,34.22
2022-12-16T00:39:24.433Z,32.67
2022-12-16T00:41:54.000Z,33.70
2022-12-16T00:44:24.943Z,35.10
2022-12-16T00:46:55.048Z,33.17
2022-12-16T00:49:25.128Z,33.42
2022-12-16T00:51:54.853Z,34.40
2022-12-16T00:54:25.452Z,35.55
2022-12-16T00:56:53.894Z,33.30
2022-12-16T00:59:22.437Z,38.38
2022-12-16T01:01:50.867Z,31.10
2022-12-16T01:04:19.183Z,34.80
2022-12-16T01:06:47.948Z,33.92
2022-12-16T01:09:16.047Z,34.65
2022-12-16T01:11:44.768Z,31.58
2022-12-16T01:14:12.087Z,34.88
2022-12-16T01:16:40.485Z,35.75
2022-12-16T01:19:09.267Z,35.08
2022-12-16T01:21:38.934Z,34.33
2022-12-16T01:24:11.570Z,34.90
2022-12-16T01:26:41.747Z,34.45
2022-12-16T01:29:11.801Z,34.92
2022-12-16T01:31:41.884Z,33.50
2022-12-16T01:34:11.996Z,32.30
2022-12-16T01:36:42.022Z,30.10
2022-12-16T01:39:12.571Z,32.05
2022-12-16T01:41:42.571Z,30.55
2022-12-16T01:44:30.743Z,28.88
2022-12-16T01:47:07.021Z,32.67
2022-12-16T01:49:46.127Z,33.10
2022-12-16T01:52:30.453Z,31.30
2022-12-16T01:55:16.000Z,29.05
2022-12-16T01:58:05.520Z,30.67
2022-12-16T02:00:40.601Z,29.50
2022-12-16T02:03:11.831Z,31.83
2022-12-16T02:05:47.083Z,31.67
2022-12-16T02:08:20.150Z,30.73
2022-12-16T02:11:10.863Z,30.10
2022-12-16T02:14:00.451Z,28.83
2022-12-16T02:16:33.546Z,30.52
2022-12-16T02:19:40.113Z,28.83
2022-12-16T02:22:27.891Z,28.75
2022-12-16T02:25:29.798Z,29.15
2022-12-16T02:28:36.107Z,28.65
2022-12-16T02:32:00.763Z,27.95
2022-12-16T02:35:22.942Z,27.52
2022-12-16T02:38:21.466Z,26.95
2022-12-16T02:41:17.660Z,27.23
2022-12-16T02:44:12.192Z,25.70
2022-12-16T02:46:55.377Z,29.55
2022-12-16T02:49:25.458Z,27.33
2022-12-16T02:52:01.927Z,26.02
2022-12-16T02:54:32.323Z,28.83
2022-12-16T02:57:41.457Z,27.52
2022-12-16T03:00:21.613Z,25.65
2022-12-16T03:03:02.175Z,28.35
2022-12-16T03:05:48.406Z,28.55
2022-12-16T03:08:36.898Z,28.25
2022-12-16T03:11:10.897Z,27.77
2022-12-16T03:13:54.796Z,28.42
2022-12-16T03:16:31.987Z,29.52
2022-12-16T03:19:11.842Z,31.27
2022-12-16T03:22:02.891Z,30.70
2022-12-16T03:24:34.577Z,32.22
2022-12-16T03:27:49.962Z,27.30
2022-12-16T03:30:30.084Z,31.92
2022-12-16T03:33:19.553Z,27.17
2022-12-16T03:36:19.506Z,31.42
2022-12-16T03:38:53.803Z,27.27
2022-12-16T03:41:26.717Z,30.38
2022-12-16T03:43:57.306Z,30.67
2022-12-16T03:46:27.945Z,29.48
2022-12-16T03:48:58.114Z,31.40
2022-12-16T03:51:28.156Z,29.88
2022-12-16T03:53:58.210Z,28.65
2022-12-16T03:56:28.361Z,29.80
2022-12-16T03:58:58.797Z,28.23
2022-12-16T04:01:28.946Z,27.63
2022-12-16T04:03:59.178Z,25.50
2022-12-16T04:06:29.562Z,30.60
2022-12-16T04:09:02.514Z,29.77
2022-12-16T04:11:51.330Z,28.15
2022-12-16T04:14:53.548Z,31.48
2022-12-16T04:17:41.535Z,27.23
2022-12-16T04:20:38.538Z,29.42
2022-12-16T04:23:28.961Z,28.13
2022-12-16T04:25:59.672Z,29.33
2022-12-16T04:28:30.325Z,29.48
2022-12-16T04:31:00.756Z,28.35
2022-12-16T04:33:50.525Z,30.00
2022-12-16T04:36:39.258Z,27.90
2022-12-16T04:39:28.025Z,27.83
2022-12-16T04:42:17.258Z,28.67
2022-12-16T04:45:06.071Z,26.40
2022-12-16T04:47:57.506Z,27.80
2022-12-16T04:50:46.508Z,28.65
2022-12-16T04:53:35.436Z,24.80
2022-12-16T04:56:24.950Z,24.42
2022-12-16T04:59:14.183Z,30.05
2022-12-16T05:02:03.441Z,25.80
2022-12-16T05:04:52.067Z,29.10
2022-12-16T05:07:40.785Z,28.58
2022-12-16T05:10:29.217Z,28.35
2022-12-16T05:13:17.742Z,28.10
2022-12-16T05:16:06.312Z,28.50
2022-12-16T05:18:54.877Z,29.60
2022-12-16T05:21:43.337Z,26.63
2022-12-16T05:24:32.122Z,27.30
2022-12-16T05:27:20.752Z,27.23
2022-12-16T05:30:07.659Z,28.48
2022-12-16T05:32:54.546Z,30.63
2022-12-16T05:35:44.555Z,30.58
2022-12-16T05:41:21.651Z,26.80
2022-12-16T05:44:10.247Z,25.65
2022-12-16T05:46:58.997Z,28.50
2022-12-16T05:49:47.819Z,24.17
2022-12-16T05:52:36.632Z,27.77
2022-12-16T05:55:30.507Z,28.00
2022-12-16T05:58:22.467Z,29.02
2022-12-16T06:01:11.284Z,26.55
2022-12-16T06:04:00.180Z,28.48
2022-12-16T06:09:36.852Z,26.08
2022-12-16T06:12:27.325Z,28.85
2022-12-16T06:15:15.878Z,27.73
2022-12-16T06:18:09.902Z,29.35
2022-12-16T06:20:58.985Z,30.35
2022-12-16T06:23:47.766Z,27.92
2022-12-16T06:26:36.342Z,28.45
2022-12-16T06:29:22.111Z,30.42
2022-12-16T06:32:10.865Z,28.42
2022-12-16T06:34:59.597Z,31.02
2022-12-16T06:37:47.900Z,28.23
2022-12-16T06:40:36.437Z,29.10
2022-12-16T06:43:24.937Z,29.33
2022-12-16T06:46:10.945Z,28.90
2022-12-16T06:48:59.624Z,27.83
2022-12-16T06:51:48.110Z,28.27
2022-12-16T06:54:36.821Z,28.67
2022-12-16T06:57:25.624Z,27.58
2022-12-16T07:00:14.006Z,27.95
2022-12-16T07:03:02.648Z,29.33
2022-12-16T07:05:51.082Z,31.42
2022-12-16T07:08:39.680Z,29.10
2022-12-16T07:11:27.930Z,31.13
2022-12-16T07:14:16.694Z,29.40
2022-12-16T07:17:05.207Z,29.63
2022-12-16T07:19:53.688Z,31.75
2022-12-16T07:22:42.260Z,29.98
2022-12-16T07:25:30.756Z,28.08
2022-12-16T07:28:17.517Z,30.38
2022-12-16T07:31:05.965Z,30.00
2022-12-16T07:33:54.593Z,29.33
2022-12-16T07:36:43.142Z,32.70
2022-12-16T07:39:31.909Z,29.92
2022-12-16T07:42:20.624Z,31.63
2022-12-16T07:45:09.056Z,29.60
2022-12-16T07:48:06.006Z,27.17
2022-12-16T07:50:57.916Z,28.90
2022-12-16T07:53:47.414Z,28.27
2022-12-16T07:56:35.943Z,29.90
2022-12-16T07:59:24.564Z,29.92
2022-12-16T08:02:13.203Z,28.52
2022-12-16T08:05:01.587Z,30.88
2022-12-16T08:07:50.186Z,31.77
2022-12-16T08:10:38.873Z,29.95
2022-12-16T08:13:27.381Z,32.42
2022-12-16T08:16:16.174Z,25.27
2022-12-16T08:19:10.700Z,29.98
2022-12-16T08:21:59.818Z,30.95
2022-12-16T08:28:10.548Z,32.17
2022-12-16T08:30:59.668Z,27.95
2022-12-16T08:33:48.372Z,31.95
2022-12-16T08:36:37.030Z,31.67
2022-12-16T08:39:25.778Z,35.30
2022-12-16T08:42:16.200Z,33.90
2022-12-16T08:45:04.669Z,38.75
2022-12-16T08:47:53.412Z,34.40
2022-12-16T08:50:42.423Z,39.60
2022-12-16T08:56:19.950Z,36.35
2022-12-16T08:59:08.452Z,40.10
2022-12-16T09:01:57.594Z,37.63
2022-12-16T09:07:32.619Z,36.70
2022-12-16T09:13:10.642Z,36.72
2022-12-16T09:18:48.176Z,38.55
2022-12-16T09:21:36.572Z,34.80
2022-12-16T09:24:25.397Z,38.28
2022-12-16T09:27:14.411Z,41.85
2022-12-16T09:32:53.742Z,39.50
2022-12-16T09:35:43.298Z,43.55
2022-12-16T09:38:32.664Z,45.78
2022-12-16T09:41:45.482Z,40.88
2022-12-16T09:45:09.437Z,43.10
2022-12-16T09:48:39.766Z,42.40
2022-12-16T09:51:32.871Z,40.90
2022-12-16T09:54:23.652Z,42.75
2022-12-16T09:57:12.155Z,41.35
2022-12-16T10:00:16.112Z,40.65
2022-12-16T10:03:09.794Z,39.83
2022-12-16T10:06:52.275Z,39.10
2022-12-16T10:10:31.045Z,39.80
2022-12-16T10:13:28.125Z,38.78
2022-12-16T10:16:51.545Z,40.85
2022-12-16T10:20:53.680Z,38.67
2022-12-16T10:24:06.973Z,40.40
2022-12-16T10:27:41.767Z,39.67
2022-12-16T10:30:34.454Z,41.83
2022-12-16T10:33:34.476Z,42.03
2022-12-16T10:36:40.778Z,41.83
2022-12-16T10:40:23.659Z,42.50
2022-12-16T10:43:34.661Z,42.13
2022-12-16T10:46:39.854Z,42.35
2022-12-16T10:49:35.195Z,40.35
2022-12-16T10:52:25.424Z,43.53
2022-12-16T10:55:49.336Z,42.00
2022-12-16T10:59:09.370Z,41.03
2022-12-16T11:01:59.045Z,40.45
2022-12-16T11:04:57.033Z,43.83
2022-12-16T11:08:03.340Z,42.22
2022-12-16T11:11:02.447Z,42.72
2022-12-16T11:13:56.372Z,44.10
2022-12-16T11:16:48.214Z,43.67
2022-12-16T11:19:50.182Z,42.53
2022-12-16T11:22:42.847Z,42.00
2022-12-16T11:25:40.525Z,40.97
2022-12-16T11:28:36.944Z,40.33
2022-12-16T11:31:35.462Z,39.58
2022-12-16T11:34:24.653Z,40.92
2022-12-16T11:37:21.017Z,40.67
2022-12-16T11:40:12.713Z,42.45
2022-12-16T11:43:10.534Z,41.67
2022-12-16T11:46:03.347Z,41.70
2022-12-16T11:49:24.714Z,40.67
2022-12-16T11:52:39.214Z,42.22
2022-12-16T11:56:06.606Z,38.90
2022-12-16T11:59:21.819Z,39.80
2022-12-16T12:02:22.054Z,38.83
2022-12-16T12:05:10.893Z,40.33
2022-12-16T12:08:38.512Z,39.95
2022-12-16T12:11:46.927Z,37.53
2022-12-16T12:15:21.121Z,39.60
2022-12-16T12:18:50.965Z,39.03
2022-12-16T12:22:07.592Z,41.88
2022-12-16T12:26:13.915Z,38.15
2022-12-16T12:29:25.593Z,38.30
2022-12-16T12:33:04.662Z,36.72
2022-12-16T12:36:38.051Z,34.35
2022-12-16T12:40:17.213Z,36.30
2022-12-16T12:43:14.946Z,37.40
2022-12-16T12:46:33.803Z,36.28
2022-12-16T12:49:57.802Z,36.67
2022-12-16T12:53:42.418Z,34.85
2022-12-16T12:56:48.714Z,37.30
2022-12-16T13:00:05.505Z,35.67
2022-12-16T13:03:17.961Z,36.08
2022-12-16T13:06:09.369Z,39.40
2022-12-16T13:09:16.631Z,38.72
2022-12-16T13:12:27.954Z,38.28
2022-12-16T13:15:25.016Z,39.95
2022-12-16T13:18:22.740Z,37.17
2022-12-16T13:21:17.874Z,36.88
2022-12-16T13:24:06.686Z,35.65
2022-12-16T13:26:55.185Z,37.25
2022-12-16T13:29:50.350Z,37.63
2022-12-16T13:32:44.569Z,36.95
2022-12-16T13:35:37.182Z,36.83
2022-12-16T13:38:40.795Z,35.55
2022-12-16T13:42:04.721Z,41.67
2022-12-16T13:45:02.374Z,37.60
2022-12-16T13:48:13.919Z,42.80
2022-12-16T13:51:17.865Z,35.38
2022-12-16T13:54:12.590Z,34.65
2022-12-16T13:57:08.652Z,35.00
2022-12-16T14:00:01.965Z,32.45
2022-12-16T14:03:02.453Z,40.72
2022-12-16T14:06:02.386Z,38.45
2022-12-16T14:08:57.458Z,40.33
2022-12-16T14:12:20.109Z,34.17
2022-12-16T14:15:31.737Z,33.08
2022-12-16T14:19:04.942Z,35.38
2022-12-16T14:22:40.956Z,35.35
2022-12-16T14:25:49.066Z,35.38
2022-12-16T14:28:58.302Z,36.95
2022-12-16T14:32:08.231Z,33.22
2022-12-16T14:34:57.005Z,38.88
2022-12-16T14:37:57.331Z,36.38
2022-12-16T14:40:51.986Z,35.25
2022-12-16T14:43:44.877Z,33.20
2022-12-16T14:46:50.529Z,37.15
2022-12-16T14:49:49.218Z,32.58
2022-12-16T14:52:45.184Z,32.55
2022-12-16T14:55:48.825Z,30.65
2022-12-16T14:58:43.473Z,33.13
2022-12-16T15:01:43.587Z,31.75
2022-12-16T15:04:41.633Z,33.80
2022-12-16T15:07:34.275Z,31.40
2022-12-16T15:10:24.354Z,31.23
2022-12-16T15:13:11.699Z,30.35
2022-12-16T15:16:09.481Z,28.83
2022-12-16T15:19:07.501Z,30.27
2022-12-16T15:21:56.241Z,28.50
2022-12-16T15:24:49.392Z,29.63
2022-12-16T15:27:37.907Z,29.13
2022-12-16T15:31:01.376Z,30.58
2022-12-16T15:33:57.169Z,29.50
2022-12-16T15:36:56.032Z,30.70
2022-12-16T15:40:00.793Z,29.08
2022-12-16T15:42:52.590Z,28.83
2022-12-16T15:45:51.361Z,28.95
2022-12-16T15:48:52.872Z,30.07
2022-12-16T15:51:45.696Z,30.40
2022-12-16T15:54:43.198Z,30.27
2022-12-16T15:57:55.351Z,33.38
2022-12-16T16:00:50.248Z,33.03
2022-12-16T16:04:06.040Z,35.60
2022-12-16T16:06:55.496Z,48.03
2022-12-16T16:09:52.381Z,41.08
2022-12-16T16:12:44.866Z,35.85
2022-12-16T16:15:34.342Z,35.05
2022-12-16T16:18:25.084Z,36.13
2022-12-16T16:21:13.632Z,38.90
2022-12-16T16:24:02.420Z,42.08
2022-12-16T16:26:51.046Z,42.22
2022-12-16T16:29:39.489Z,39.63
2022-12-16T16:32:28.947Z,38.33
2022-12-16T16:35:31.082Z,39.80
2022-12-16T16:38:19.488Z,37.22
2022-12-16T16:41:08.060Z,38.08
2022-12-16T16:43:56.580Z,38.67
2022-12-16T16:46:59.968Z,39.38
2022-12-16T16:50:19.270Z,41.92
2022-12-16T16:53:08.333Z,40.83
2022-12-16T16:55:56.816Z,42.92
2022-12-16T16:58:52.470Z,41.17
2022-12-16T17:01:40.992Z,39.30
2022-12-16T17:04:29.903Z,40.28
2022-12-16T17:07:18.691Z,39.08
2022-12-16T17:10:07.141Z,39.58
2022-12-16T17:12:58.684Z,38.92
2022-12-16T17:15:56.293Z,37.42
2022-12-16T17:18:50.530Z,37.63
2022-12-16T17:21:41.130Z,44.92
2022-12-16T17:24:29.600Z,66.45
2022-12-16T17:27:39.656Z,42.85
2022-12-16T17:30:46.979Z,56.35
2022-12-16T17:33:36.691Z,60.25
2022-12-16T17:36:27.302Z,46.47
2022-12-16T17:39:19.958Z,44.25
2022-12-16T17:42:10.040Z,42.15
2022-12-16T17:44:58.624Z,38.20
2022-12-16T17:47:47.364Z,40.72
2022-12-16T17:50:37.878Z,39.58
2022-12-16T17:53:26.690Z,40.65
2022-12-16T17:56:14.074Z,42.28
2022-12-16T17:59:05.645Z,41.65
2022-12-16T18:01:54.374Z,38.83
2022-12-16T18:04:43.104Z,39.47
2022-12-16T18:07:31.538Z,40.25
2022-12-16T18:10:19.997Z,42.75
2022-12-16T18:13:09.733Z,42.25
2022-12-16T18:15:57.457Z,41.70
2022-12-16T18:18:46.510Z,41.50
2022-12-16T18:21:35.387Z,42.50
2022-12-16T18:24:28.358Z,40.67
2022-12-16T18:27:17.214Z,40.10
2022-12-16T18:30:07.283Z,43.50
2022-12-16T18:32:56.700Z,44.63
2022-12-16T18:35:45.996Z,128.65
2022-12-16T18:38:34.809Z,79.07
2022-12-16T18:41:34.102Z,63.22
2022-12-16T18:44:25.772Z,57.45
2022-12-16T18:47:14.511Z,60.65
2022-12-16T18:50:03.199Z,54.50
2022-12-16T18:52:51.623Z,42.65
2022-12-16T18:55:40.580Z,49.10
2022-12-16T18:58:50.252Z,51.33
2022-12-16T19:01:38.540Z,59.88
2022-12-16T19:07:15.456Z,52.47
2022-12-16T19:10:04.134Z,49.00
2022-12-16T19:12:51.119Z,46.13
2022-12-16T19:15:41.607Z,50.50
2022-12-16T19:18:31.049Z,49.58
2022-12-16T19:24:08.167Z,45.97
2022-12-16T19:26:58.063Z,49.40
2022-12-16T19:29:46.669Z,50.47
2022-12-16T19:32:35.478Z,52.67
2022-12-16T19:35:24.712Z,52.10
2022-12-16T19:41:14.257Z,48.35
2022-12-16T19:44:06.000Z,54.22
2022-12-16T19:46:56.284Z,53.95
2022-12-16T19:49:45.265Z,54.15
2022-12-16T19:52:33.983Z,59.10
2022-12-16T19:55:23.066Z,69.20
2022-12-16T19:58:11.917Z,63.83
2022-12-16T20:01:00.873Z,63.30
2022-12-16T20:03:50.303Z,62.58
2022-12-16T20:06:39.251Z,57.95
2022-12-16T20:09:28.100Z,62.25
2022-12-16T20:12:17.335Z,62.60
2022-12-16T20:21:04.724Z,72.68
2022-12-16T20:23:53.500Z,69.93
2022-12-16T20:26:42.359Z,66.00
2022-12-16T20:29:30.518Z,66.93
2022-12-16T20:32:19.253Z,62.30
2022-12-16T20:35:07.864Z,62.05
2022-12-16T20:37:57.975Z,59.70
2022-12-16T20:40:46.675Z,59.90
2022-12-16T20:43:35.341Z,62.72
2022-12-16T20:46:24.001Z,59.53
2022-12-16T20:49:12.591Z,54.75
2022-12-16T20:52:01.234Z,59.10
2022-12-16T20:54:50.047Z,59.78
2022-12-16T20:57:38.649Z,54.92
2022-12-16T21:00:28.057Z,63.67
2022-12-16T21:03:16.968Z,58.05
2022-12-16T21:06:05.764Z,55.67
2022-12-16T21:08:54.267Z,59.53
2022-12-16T21:11:44.753Z,59.28
2022-12-16T21:14:33.356Z,56.30
2022-12-16T21:17:21.813Z,58.17
2022-12-16T21:20:10.272Z,61.10
2022-12-16T21:22:58.797Z,60.70
2022-12-16T21:25:47.610Z,62.65
2022-12-16T21:28:36.296Z,59.88
2022-12-16T21:31:25.200Z,59.28
2022-12-16T21:34:13.980Z,63.97
2022-12-16T21:37:02.657Z,58.70
2022-12-16T21:39:51.372Z,58.60
2022-12-16T21:45:33.610Z,52.58
2022-12-16T21:51:12.639Z,55.95
2022-12-16T21:54:06.367Z,54.97
2022-12-16T21:56:57.027Z,60.95
2022-12-16T21:59:46.082Z,66.57
2022-12-16T22:02:34.553Z,59.45
2022-12-16T22:05:23.507Z,56.70
2022-12-16T22:08:11.971Z,59.90
2022-12-16T22:11:00.630Z,55.53
2022-12-16T22:13:49.574Z,59.38
2022-12-16T22:16:38.527Z,58.10
2022-12-16T22:19:41.119Z,52.72
2022-12-16T22:22:30.159Z,53.33
2022-12-16T22:25:18.641Z,50.75
2022-12-16T22:28:05.247Z,56.17
2022-12-16T22:30:53.868Z,62.85
2022-12-16T22:33:45.085Z,63.15
2022-12-16T22:36:33.852Z,52.97
2022-12-16T22:39:22.564Z,51.60
2022-12-16T22:42:12.555Z,52.70
2022-12-16T22:45:01.452Z,49.03
2022-12-16T22:47:50.816Z,50.73
2022-12-16T22:50:40.680Z,50.30
2022-12-16T22:53:33.057Z,51.58
2022-12-16T22:56:21.674Z,52.38
2022-12-16T22:59:10.478Z,49.72
2022-12-16T23:01:59.077Z,52.17
2022-12-16T23:04:48.022Z,52.20
2022-12-16T23:07:34.701Z,51.80
2022-12-16T23:10:24.683Z,53.92
2022-12-16T23:13:13.065Z,51.38
2022-12-16T23:16:01.790Z,51.25
2022-12-16T23:18:50.727Z,50.83
2022-12-16T23:21:40.494Z,56.45
2022-12-16T23:24:29.992Z,52.55
2022-12-16T23:27:18.614Z,53.72
2022-12-16T23:30:07.388Z,53.15
2022-12-16T23:32:54.333Z,58.97
2022-12-16T23:35:44.946Z,57.00
2022-12-16T23:38:33.438Z,58.63
2022-12-16T23:41:21.795Z,57.60
2022-12-16T23:44:10.825Z,58.50
2022-12-16T23:46:59.847Z,56.83
2022-12-16T23:49:48.627Z,55.53
2022-12-16T23:52:37.089Z,55.58
2022-12-16T23:55:26.584Z,52.25
2022-12-16T23:58:25.759Z,57.40
